createdAt,value
2018-05-14T19:40:15.810Z,77.76
2018-05-14T19:42:41.943Z,77.37
2018-05-14T19:45:08.093Z,78.25
2018-05-14T19:47:34.174Z,79.33
2018-05-14T19:50:00.194Z,79.25
2018-05-14T19:52:26.394Z,80.27
2018-05-14T19:54:52.440Z,80.11
2018-05-14T19:57:18.622Z,79.60
2018-05-14T19:59:44.688Z,80.50
2018-05-14T20:02:10.766Z,80.02
2018-05-14T20:04:36.972Z,80.66
2018-05-14T20:07:03.110Z,81.03
2018-05-14T20:09:29.181Z,81.25
2018-05-14T20:11:55.239Z,80.67
2018-05-14T20:14:21.389Z,81.05
2018-05-14T20:16:47.441Z,81.14
2018-05-14T20:19:13.482Z,81.25
2018-05-14T20:21:39.506Z,81.14
2018-05-14T20:24:05.575Z,81.39
2018-05-14T20:26:31.635Z,81.12
2018-05-14T20:28:57.702Z,82.17
2018-05-14T20:31:23.775Z,81.77
2018-05-14T20:33:49.838Z,81.77
2018-05-14T20:36:15.902Z,81.15
2018-05-14T20:38:41.929Z,81.83
2018-05-14T20:41:08.078Z,82.03
2018-05-14T20:43:34.115Z,82.28
2018-05-14T20:46:00.191Z,81.70
2018-05-14T20:48:26.304Z,82.38
2018-05-14T20:50:52.403Z,82.13
2018-05-14T20:53:18.495Z,82.19
2018-05-14T20:55:44.552Z,81.92
2018-05-14T20:58:10.622Z,82.20
2018-05-14T21:00:36.907Z,81.25
2018-05-14T21:03:03.038Z,82.62
2018-05-14T21:05:29.163Z,81.85
2018-05-14T21:07:57.046Z,82.21
2018-05-14T21:10:23.130Z,82.67
2018-05-14T21:12:49.212Z,82.03
2018-05-14T21:15:15.307Z,83.02
2018-05-14T21:17:41.340Z,83.06
2018-05-14T21:20:07.433Z,82.96
2018-05-14T21:22:33.504Z,82.64
2018-05-14T21:24:59.632Z,82.87
2018-05-14T21:27:25.684Z,83.20
2018-05-14T21:29:51.750Z,83.24
2018-05-14T21:32:17.798Z,83.24
2018-05-14T21:34:43.871Z,82.64
2018-05-14T21:37:10.041Z,82.84
2018-05-14T21:39:36.181Z,82.54
2018-05-14T21:42:02.273Z,82.58
2018-05-14T21:44:28.357Z,82.56
2018-05-14T21:46:54.540Z,82.22
2018-05-14T21:49:20.672Z,82.97
2018-05-14T21:51:47.333Z,81.83
2018-05-14T21:54:13.369Z,82.93
2018-05-14T21:56:39.433Z,82.19
2018-05-14T21:59:05.484Z,81.92
2018-05-14T22:01:31.513Z,82.28
2018-05-14T22:03:57.523Z,81.98
2018-05-14T22:06:23.565Z,82.22
2018-05-14T22:08:49.646Z,82.19
2018-05-14T22:11:16.411Z,81.99
2018-05-14T22:13:42.821Z,81.53
2018-05-14T22:16:08.990Z,82.25
2018-05-14T22:18:35.027Z,82.26
2018-05-14T22:21:01.107Z,82.21
2018-05-14T22:23:27.154Z,82.24
2018-05-14T22:25:53.251Z,82.12
2018-05-14T22:28:19.307Z,81.72
2018-05-14T22:30:45.360Z,81.99
2018-05-14T22:33:11.405Z,81.78
2018-05-14T22:35:37.480Z,81.48
2018-05-14T22:38:03.541Z,81.11
2018-05-14T22:40:29.599Z,81.43
2018-05-14T22:42:55.654Z,81.08
2018-05-14T22:45:21.718Z,80.84
2018-05-14T22:47:47.794Z,81.57
2018-05-14T22:50:13.830Z,80.86
2018-05-14T22:52:40.094Z,81.64
2018-05-14T22:55:06.129Z,81.84
2018-05-14T22:57:32.162Z,81.53
2018-05-14T22:59:58.525Z,81.63
2018-05-14T23:02:24.644Z,80.87
2018-05-14T23:04:50.752Z,80.80
2018-05-14T23:07:16.787Z,80.43
2018-05-14T23:09:42.811Z,80.71
2018-05-14T23:12:08.886Z,81.45
2018-05-14T23:14:34.931Z,81.39
2018-05-14T23:17:00.998Z,81.54
2018-05-14T23:19:27.052Z,81.38
2018-05-14T23:21:53.206Z,81.62
2018-05-14T23:24:19.247Z,81.56
2018-05-14T23:26:45.283Z,81.51
2018-05-14T23:29:11.307Z,81.39
2018-05-14T23:31:37.381Z,81.91
2018-05-14T23:34:03.415Z,81.98
2018-05-14T23:36:29.491Z,81.94
2018-05-14T23:38:55.515Z,82.45
2018-05-14T23:41:21.569Z,82.69
2018-05-14T23:43:47.637Z,82.77
2018-05-14T23:46:13.637Z,82.83
2018-05-14T23:48:39.702Z,82.82
2018-05-14T23:51:05.738Z,83.76
2018-05-14T23:53:31.788Z,83.47
2018-05-14T23:55:57.870Z,83.44
2018-05-14T23:58:23.867Z,83.95
